sensor_id;sensor_type;location;lat;lon;timestamp;pressure;altitude;pressure_sealevel;temperature;humidity
30714;BME280;17465;47.934;33.430;2023-08-01T00:01:52;57538.01;;;-140.43;88.60
30714;BME280;17465;47.934;33.430;2023-08-01T00:04:23;57542.25;;;-140.43;89.07
30714;BME280;17465;47.934;33.430;2023-08-01T00:06:53;57553.90;;;-140.43;89.82
30714;BME280;17465;47.934;33.430;2023-08-01T00:09:25;57553.90;;;-140.43;89.82
30714;BME280;17465;47.934;33.430;2023-08-01T00:11:55;57530.60;;;-140.43;89.52
30714;BME280;17465;47.934;33.430;2023-08-01T00:14:26;57553.90;;;-140.43;90.00
30714;BME280;17465;47.934;33.430;2023-08-01T00:16:56;57540.13;;;-140.43;90.61
30714;BME280;17465;47.934;33.430;2023-08-01T00:19:28;57529.54;;;-140.43;90.58
30714;BME280;17465;47.934;33.430;2023-08-01T00:22:01;57523.18;;;-140.43;90.51
30714;BME280;17465;47.934;33.430;2023-08-01T00:24:31;57540.13;;;-140.43;90.80
30714;BME280;17465;47.934;33.430;2023-08-01T00:27:02;57544.37;;;-140.43;90.37
30714;BME280;17465;47.934;33.430;2023-08-01T00:29:34;57530.60;;;-140.43;90.64
30714;BME280;17465;47.934;33.430;2023-08-01T00:32:06;57528.48;;;-140.43;91.78
30714;BME280;17465;47.934;33.430;2023-08-01T00:34:37;57538.01;;;-140.43;91.74
30714;BME280;17465;47.934;33.430;2023-08-01T00:37:07;57534.84;;;-140.43;91.53
30714;BME280;17465;47.934;33.430;2023-08-01T00:39:37;57534.84;;;-140.43;91.53
30714;BME280;17465;47.934;33.430;2023-08-01T00:42:08;57503.06;;;-140.43;92.66
30714;BME280;17465;47.934;33.430;2023-08-01T00:44:38;57524.25;;;-140.43;92.16
30714;BME280;17465;47.934;33.430;2023-08-01T00:47:10;57541.19;;;-140.43;92.21
30714;BME280;17465;47.934;33.430;2023-08-01T00:49:41;57497.77;;;-140.43;92.44
30714;BME280;17465;47.934;33.430;2023-08-01T00:52:12;57520.01;;;-140.43;92.43
30714;BME280;17465;47.934;33.430;2023-08-01T00:54:43;57508.36;;;-140.43;93.52
30714;BME280;17465;47.934;33.430;2023-08-01T00:57:17;57508.36;;;-140.43;93.52
30714;BME280;17465;47.934;33.430;2023-08-01T00:59:48;57528.48;;;-140.43;93.28
30714;BME280;17465;47.934;33.430;2023-08-01T01:02:24;57528.48;;;-140.43;93.28
30714;BME280;17465;47.934;33.430;2023-08-01T01:04:55;57510.48;;;-140.43;93.38
30714;BME280;17465;47.934;33.430;2023-08-01T01:07:26;57510.48;;;-140.43;93.38
30714;BME280;17465;47.934;33.430;2023-08-01T01:09:58;57513.65;;;-140.43;92.83
30714;BME280;17465;47.934;33.430;2023-08-01T01:12:29;57520.01;;;-140.43;91.90
30714;BME280;17465;47.934;33.430;2023-08-01T01:14:59;57511.54;;;-140.43;92.55
30714;BME280;17465;47.934;33.430;2023-08-01T01:17:32;57515.77;;;-140.43;92.45
30714;BME280;17465;47.934;33.430;2023-08-01T01:20:06;57518.95;;;-140.43;92.35
30714;BME280;17465;47.934;33.430;2023-08-01T01:22:44;57518.95;;;-140.43;92.35
30714;BME280;17465;47.934;33.430;2023-08-01T01:25:15;57509.41;;;-140.43;92.30
30714;BME280;17465;47.934;33.430;2023-08-01T01:27:47;57494.59;;;-140.43;92.33
30714;BME280;17465;47.934;33.430;2023-08-01T01:30:21;57495.65;;;-140.43;92.13
30714;BME280;17465;47.934;33.430;2023-08-01T01:32:53;57513.65;;;-140.43;91.91
30714;BME280;17465;47.934;33.430;2023-08-01T01:35:29;57508.36;;;-140.43;91.85
30714;BME280;17465;47.934;33.430;2023-08-01T01:37:55;57528.48;;;-140.43;91.93
30714;BME280;17465;47.934;33.430;2023-08-01T01:40:26;57528.48;;;-140.43;91.93
30714;BME280;17465;47.934;33.430;2023-08-01T01:42:56;57500.94;;;-140.43;91.26
30714;BME280;17465;47.934;33.430;2023-08-01T01:45:27;57545.43;;;-140.43;91.58
30714;BME280;17465;47.934;33.430;2023-08-01T01:47:58;57545.43;;;-140.43;91.58
30714;BME280;17465;47.934;33.430;2023-08-01T01:50:28;57520.01;;;-140.43;92.70
30714;BME280;17465;47.934;33.430;2023-08-01T01:52:58;57520.01;;;-140.43;92.70
30714;BME280;17465;47.934;33.430;2023-08-01T01:55:29;57545.43;;;-140.43;92.65
30714;BME280;17465;47.934;33.430;2023-08-01T01:57:59;57545.43;;;-140.43;92.65
30714;BME280;17465;47.934;33.430;2023-08-01T02:00:30;57512.59;;;-140.43;92.93
30714;BME280;17465;47.934;33.430;2023-08-01T02:03:00;57514.71;;;-140.43;92.99
30714;BME280;17465;47.934;33.430;2023-08-01T02:05:31;57505.18;;;-140.43;93.28
30714;BME280;17465;47.934;33.430;2023-08-01T02:08:01;57507.30;;;-140.43;93.37
30714;BME280;17465;47.934;33.430;2023-08-01T02:10:31;57495.65;;;-140.43;94.12
30714;BME280;17465;47.934;33.430;2023-08-01T02:13:02;57495.65;;;-140.43;94.12
30714;BME280;17465;47.934;33.430;2023-08-01T02:15:32;57507.30;;;-140.43;93.92
30714;BME280;17465;47.934;33.430;2023-08-01T02:18:02;57507.30;;;-140.43;93.92
30714;BME280;17465;47.934;33.430;2023-08-01T02:20:33;57513.65;;;-140.43;94.18
30714;BME280;17465;47.934;33.430;2023-08-01T02:23:03;57521.07;;;-140.43;94.08
30714;BME280;17465;47.934;33.430;2023-08-01T02:25:38;57505.18;;;-140.43;94.09
30714;BME280;17465;47.934;33.430;2023-08-01T02:28:10;57504.12;;;-140.43;94.50
30714;BME280;17465;47.934;33.430;2023-08-01T02:30:41;57487.18;;;-140.43;95.66
30714;BME280;17465;47.934;33.430;2023-08-01T02:33:11;57515.77;;;-140.43;95.45
30714;BME280;17465;47.934;33.430;2023-08-01T02:35:42;57515.77;;;-140.43;95.45
30714;BME280;17465;47.934;33.430;2023-08-01T02:38:12;57502.00;;;-140.43;94.99
30714;BME280;17465;47.934;33.430;2023-08-01T02:40:43;57500.94;;;-140.43;95.45
30714;BME280;17465;47.934;33.430;2023-08-01T02:43:13;57500.94;;;-140.43;95.45
30714;BME280;17465;47.934;33.430;2023-08-01T02:45:44;57490.35;;;-140.43;95.38
30714;BME280;17465;47.934;33.430;2023-08-01T02:48:14;57482.94;;;-140.43;96.04
30714;BME280;17465;47.934;33.430;2023-08-01T02:50:46;57482.94;;;-140.43;96.04
30714;BME280;17465;47.934;33.430;2023-08-01T02:53:16;57474.46;;;-140.43;95.40
30714;BME280;17465;47.934;33.430;2023-08-01T02:55:47;57523.18;;;-140.43;96.53
30714;BME280;17465;47.934;33.430;2023-08-01T02:58:17;57494.59;;;-140.43;95.81
30714;BME280;17465;47.934;33.430;2023-08-01T03:00:48;57484.00;;;-140.43;96.40
30714;BME280;17465;47.934;33.430;2023-08-01T03:03:18;57502.00;;;-140.43;96.39
30714;BME280;17465;47.934;33.430;2023-08-01T03:05:49;57498.82;;;-140.43;96.24
30714;BME280;17465;47.934;33.430;2023-08-01T03:08:19;57530.60;;;-140.43;96.30
30714;BME280;17465;47.934;33.430;2023-08-01T03:10:50;57530.60;;;-140.43;96.30
30714;BME280;17465;47.934;33.430;2023-08-01T03:13:21;57492.47;;;-140.43;96.19
30714;BME280;17465;47.934;33.430;2023-08-01T03:15:51;57505.18;;;-140.43;96.55
30714;BME280;17465;47.934;33.430;2023-08-01T03:18:22;57530.60;;;-140.43;96.16
30714;BME280;17465;47.934;33.430;2023-08-01T03:20:52;57507.30;;;-140.43;97.28
30714;BME280;17465;47.934;33.430;2023-08-01T03:23:22;57505.18;;;-140.43;96.98
30714;BME280;17465;47.934;33.430;2023-08-01T03:25:53;57503.06;;;-140.43;96.13
30714;BME280;17465;47.934;33.430;2023-08-01T03:28:23;57528.48;;;-140.43;96.60
30714;BME280;17465;47.934;33.430;2023-08-01T03:30:54;57528.48;;;-140.43;96.60
30714;BME280;17465;47.934;33.430;2023-08-01T03:33:24;57530.60;;;-140.43;96.55
30714;BME280;17465;47.934;33.430;2023-08-01T03:35:54;57530.60;;;-140.43;96.55
30714;BME280;17465;47.934;33.430;2023-08-01T03:38:25;57507.30;;;-140.43;96.05
30714;BME280;17465;47.934;33.430;2023-08-01T03:40:55;57535.89;;;-140.43;95.61
30714;BME280;17465;47.934;33.430;2023-08-01T03:43:25;57535.89;;;-140.43;95.61
30714;BME280;17465;47.934;33.430;2023-08-01T03:45:55;57503.06;;;-140.43;94.60
30714;BME280;17465;47.934;33.430;2023-08-01T03:48:26;57523.18;;;-140.43;94.64
30714;BME280;17465;47.934;33.430;2023-08-01T03:50:56;57543.31;;;-140.43;93.93
30714;BME280;17465;47.934;33.430;2023-08-01T03:53:26;57543.31;;;-140.43;93.93
30714;BME280;17465;47.934;33.430;2023-08-01T03:55:57;57564.49;;;-140.43;92.31
30714;BME280;17465;47.934;33.430;2023-08-01T03:58:27;57564.49;;;-140.43;92.31
30714;BME280;17465;47.934;33.430;2023-08-01T04:00:57;57535.89;;;-140.43;91.90
30714;BME280;17465;47.934;33.430;2023-08-01T04:03:27;57561.31;;;-140.43;92.59
30714;BME280;17465;47.934;33.430;2023-08-01T04:05:58;57550.72;;;-140.43;92.26
30714;BME280;17465;47.934;33.430;2023-08-01T04:08:29;57561.31;;;-140.43;91.39
30714;BME280;17465;47.934;33.430;2023-08-01T04:11:00;57561.31;;;-140.43;91.39
30714;BME280;17465;47.934;33.430;2023-08-01T04:13:35;57560.25;;;-140.43;91.87
30714;BME280;17465;47.934;33.430;2023-08-01T04:16:08;57581.44;;;-140.43;91.05
30714;BME280;17465;47.934;33.430;2023-08-01T04:18:37;57549.66;;;-140.43;90.61
30714;BME280;17465;47.934;33.430;2023-08-01T04:21:08;57549.66;;;-140.43;90.61
30714;BME280;17465;47.934;33.430;2023-08-01T04:23:38;57562.37;;;-140.43;90.24
30714;BME280;17465;47.934;33.430;2023-08-01T04:26:09;57547.54;;;-140.43;88.90
30714;BME280;17465;47.934;33.430;2023-08-01T04:28:39;57547.54;;;-140.43;88.90
30714;BME280;17465;47.934;33.430;2023-08-01T04:31:10;57566.61;;;-140.43;88.37
30714;BME280;17465;47.934;33.430;2023-08-01T04:33:40;57557.08;;;-140.43;88.07
30714;BME280;17465;47.934;33.430;2023-08-01T04:36:11;57583.55;;;-140.43;86.67
30714;BME280;17465;47.934;33.430;2023-08-01T04:38:42;57551.78;;;-140.43;86.28
30714;BME280;17465;47.934;33.430;2023-08-01T04:41:15;57551.78;;;-140.43;86.28
30714;BME280;17465;47.934;33.430;2023-08-01T04:43:50;57596.27;;;-140.43;86.82
30714;BME280;17465;47.934;33.430;2023-08-01T04:46:20;57584.61;;;-140.43;86.40
30714;BME280;17465;47.934;33.430;2023-08-01T04:48:51;57599.44;;;-140.43;84.96
30714;BME280;17465;47.934;33.430;2023-08-01T04:51:21;57598.38;;;-140.43;83.93
30714;BME280;17465;47.934;33.430;2023-08-01T04:53:52;57621.68;;;-140.43;82.70
30714;BME280;17465;47.934;33.430;2023-08-01T04:56:22;57636.51;;;-140.43;84.15
30714;BME280;17465;47.934;33.430;2023-08-01T04:58:52;57641.81;;;-140.43;81.82
30714;BME280;17465;47.934;33.430;2023-08-01T05:01:23;57648.16;;;-140.43;80.83
30714;BME280;17465;47.934;33.430;2023-08-01T05:03:53;57614.27;;;-140.43;80.70
30714;BME280;17465;47.934;33.430;2023-08-01T05:06:24;57649.22;;;-140.43;81.06
30714;BME280;17465;47.934;33.430;2023-08-01T05:08:54;57652.40;;;-140.43;80.04
30714;BME280;17465;47.934;33.430;2023-08-01T05:11:24;57652.40;;;-140.43;80.04
30714;BME280;17465;47.934;33.430;2023-08-01T05:13:55;57649.22;;;-140.43;80.02
30714;BME280;17465;47.934;33.430;2023-08-01T05:16:25;57669.34;;;-140.43;78.39
30714;BME280;17465;47.934;33.430;2023-08-01T05:18:55;57651.34;;;-140.43;79.68
30714;BME280;17465;47.934;33.430;2023-08-01T05:21:26;57712.77;;;-140.43;78.75
30714;BME280;17465;47.934;33.430;2023-08-01T05:23:56;57669.34;;;-140.43;77.89
30714;BME280;17465;47.934;33.430;2023-08-01T05:26:26;57691.59;;;-140.43;77.00
30714;BME280;17465;47.934;33.430;2023-08-01T05:28:57;57691.59;;;-140.43;77.15
30714;BME280;17465;47.934;33.430;2023-08-01T05:31:27;57702.18;;;-140.43;74.82
30714;BME280;17465;47.934;33.430;2023-08-01T05:33:57;57717.01;;;-140.43;75.02
30714;BME280;17465;47.934;33.430;2023-08-01T05:36:27;57701.12;;;-140.43;76.79
30714;BME280;17465;47.934;33.430;2023-08-01T05:38:58;57727.60;;;-140.43;74.08
30714;BME280;17465;47.934;33.430;2023-08-01T05:41:28;57749.84;;;-140.43;73.94
30714;BME280;17465;47.934;33.430;2023-08-01T05:43:59;57712.77;;;-140.43;75.98
30714;BME280;17465;47.934;33.430;2023-08-01T05:46:29;57768.91;;;-140.43;76.75
30714;BME280;17465;47.934;33.430;2023-08-01T05:48:59;57775.27;;;-140.43;75.90
30714;BME280;17465;47.934;33.430;2023-08-01T05:51:30;57766.79;;;-140.43;74.16
30714;BME280;17465;47.934;33.430;2023-08-01T05:54:01;57807.04;;;-140.43;71.68
30714;BME280;17465;47.934;33.430;2023-08-01T05:56:32;57814.45;;;-140.43;71.20
30714;BME280;17465;47.934;33.430;2023-08-01T05:59:03;57832.46;;;-140.43;72.41
30714;BME280;17465;47.934;33.430;2023-08-01T06:01:34;57784.80;;;-140.43;70.93
30714;BME280;17465;47.934;33.430;2023-08-01T06:04:04;57784.80;;;-140.43;70.93
30714;BME280;17465;47.934;33.430;2023-08-01T06:06:35;57828.22;;;-140.43;70.71
30714;BME280;17465;47.934;33.430;2023-08-01T06:09:05;57815.51;;;-140.43;69.80
30714;BME280;17465;47.934;33.430;2023-08-01T06:11:35;57851.53;;;-140.43;67.99
30714;BME280;17465;47.934;33.430;2023-08-01T06:14:06;57890.72;;;-140.43;67.97
30714;BME280;17465;47.934;33.430;2023-08-01T06:16:36;57874.83;;;-140.43;68.06
30714;BME280;17465;47.934;33.430;2023-08-01T06:19:06;57880.12;;;-140.43;67.48
30714;BME280;17465;47.934;33.430;2023-08-01T06:21:37;57880.12;;;-140.43;67.48
30714;BME280;17465;47.934;33.430;2023-08-01T06:24:07;57866.36;;;-140.43;68.25
30714;BME280;17465;47.934;33.430;2023-08-01T06:26:37;57892.84;;;-140.43;64.62
30714;BME280;17465;47.934;33.430;2023-08-01T06:29:08;57892.84;;;-140.43;64.62
30714;BME280;17465;47.934;33.430;2023-08-01T06:31:38;57960.63;;;-140.43;65.56
30714;BME280;17465;47.934;33.430;2023-08-01T06:34:09;57950.04;;;-140.43;61.61
30714;BME280;17465;47.934;33.430;2023-08-01T06:36:39;57950.04;;;-140.43;61.61
30714;BME280;17465;47.934;33.430;2023-08-01T06:39:10;57977.57;;;-140.43;62.35
30714;BME280;17465;47.934;33.430;2023-08-01T06:41:40;58035.84;;;-140.43;57.06
30714;BME280;17465;47.934;33.430;2023-08-01T06:44:10;58035.84;;;-140.43;57.06
30714;BME280;17465;47.934;33.430;2023-08-01T06:46:40;58018.89;;;-140.43;58.51
30714;BME280;17465;47.934;33.430;2023-08-01T06:49:11;58018.89;;;-140.43;58.51
30714;BME280;17465;47.934;33.430;2023-08-01T06:51:44;58102.57;;;-140.43;53.46
30714;BME280;17465;47.934;33.430;2023-08-01T06:54:14;58102.57;;;-140.43;53.46
30714;BME280;17465;47.934;33.430;2023-08-01T06:56:49;58108.93;;;-140.43;52.99
30714;BME280;17465;47.934;33.430;2023-08-01T06:59:21;58108.93;;;-140.43;52.99
30714;BME280;17465;47.934;33.430;2023-08-01T07:01:56;58142.82;;;-140.43;50.98
30714;BME280;17465;47.934;33.430;2023-08-01T07:04:39;58202.15;;;-140.43;50.39
30714;BME280;17465;47.934;33.430;2023-08-01T07:07:15;58202.15;;;-140.43;50.39
30714;BME280;17465;47.934;33.430;2023-08-01T07:09:46;58241.34;;;-140.43;48.80
30714;BME280;17465;47.934;33.430;2023-08-01T07:12:16;58241.34;;;-140.43;48.80
30714;BME280;17465;47.934;33.430;2023-08-01T07:14:48;58223.33;;;-140.43;44.60
30714;BME280;17465;47.934;33.430;2023-08-01T07:17:18;58223.33;;;-140.43;44.60
30714;BME280;17465;47.934;33.430;2023-08-01T07:19:48;58156.59;;;-140.43;47.57
30714;BME280;17465;47.934;33.430;2023-08-01T07:22:19;58120.58;;;-140.43;50.13
30714;BME280;17465;47.934;33.430;2023-08-01T07:24:59;58120.58;;;-140.43;50.13
30714;BME280;17465;47.934;33.430;2023-08-01T07:27:26;58070.79;;;-140.43;49.13
30714;BME280;17465;47.934;33.430;2023-08-01T07:29:56;58036.89;;;-140.43;53.18
30714;BME280;17465;47.934;33.430;2023-08-01T07:32:27;58025.24;;;-140.43;51.33
30714;BME280;17465;47.934;33.430;2023-08-01T07:34:59;58053.84;;;-140.43;54.01
30714;BME280;17465;47.934;33.430;2023-08-01T07:37:30;58053.84;;;-140.43;54.01
30714;BME280;17465;47.934;33.430;2023-08-01T07:40:01;58011.47;;;-140.43;58.98
30714;BME280;17465;47.934;33.430;2023-08-01T07:42:31;57992.41;;;-140.43;57.22
30714;BME280;17465;47.934;33.430;2023-08-01T07:45:02;58019.95;;;-140.43;58.11
30714;BME280;17465;47.934;33.430;2023-08-01T07:47:34;58019.95;;;-140.43;58.11
30714;BME280;17465;47.934;33.430;2023-08-01T07:50:05;58009.36;;;-140.43;58.53
30714;BME280;17465;47.934;33.430;2023-08-01T07:52:36;58044.31;;;-140.43;57.17
30714;BME280;17465;47.934;33.430;2023-08-01T07:55:07;58044.31;;;-140.43;57.17
30714;BME280;17465;47.934;33.430;2023-08-01T07:57:37;58067.61;;;-140.43;56.73
30714;BME280;17465;47.934;33.430;2023-08-01T08:00:08;58137.53;;;-140.43;48.32
30714;BME280;17465;47.934;33.430;2023-08-01T08:02:45;58185.20;;;-140.43;47.66
30714;BME280;17465;47.934;33.430;2023-08-01T08:05:18;58185.20;;;-140.43;47.66
30714;BME280;17465;47.934;33.430;2023-08-01T08:07:49;58244.52;;;-140.43;48.37
30714;BME280;17465;47.934;33.430;2023-08-01T08:10:20;58315.50;;;-140.43;43.70
30714;BME280;17465;47.934;33.430;2023-08-01T08:12:50;58331.39;;;-140.43;45.75
30714;BME280;17465;47.934;33.430;2023-08-01T08:15:21;58353.63;;;-140.43;39.91
30714;BME280;17465;47.934;33.430;2023-08-01T08:17:52;58388.59;;;-140.43;40.76
30714;BME280;17465;47.934;33.430;2023-08-01T08:20:29;58398.13;;;-140.43;39.61
30714;BME280;17465;47.934;33.430;2023-08-01T08:23:00;58398.13;;;-140.43;39.61
30714;BME280;17465;47.934;33.430;2023-08-01T08:25:38;58463.81;;;-140.43;39.83
30714;BME280;17465;47.934;33.430;2023-08-01T08:28:08;58469.11;;;-140.43;38.33
30714;BME280;17465;47.934;33.430;2023-08-01T08:30:38;58469.11;;;-140.43;38.33
30714;BME280;17465;47.934;33.430;2023-08-01T08:33:20;58570.81;;;-140.43;37.13
30714;BME280;17465;47.934;33.430;2023-08-01T08:35:50;58485.00;;;-140.43;36.10
30714;BME280;17465;47.934;33.430;2023-08-01T08:38:24;58536.91;;;-140.43;35.94
30714;BME280;17465;47.934;33.430;2023-08-01T08:41:08;58526.32;;;-140.43;35.85
30714;BME280;17465;47.934;33.430;2023-08-01T08:43:35;58673.58;;;-140.43;32.88
30714;BME280;17465;47.934;33.430;2023-08-01T08:46:09;58568.70;;;-140.43;35.42
30714;BME280;17465;47.934;33.430;2023-08-01T08:48:40;58547.51;;;-140.43;36.71
30714;BME280;17465;47.934;33.430;2023-08-01T08:51:12;58601.54;;;-140.43;35.95
30714;BME280;17465;47.934;33.430;2023-08-01T08:53:44;58684.18;;;-140.43;34.86
30714;BME280;17465;47.934;33.430;2023-08-01T08:56:18;58629.08;;;-140.43;34.41
30714;BME280;17465;47.934;33.430;2023-08-01T08:58:50;58622.73;;;-140.43;35.94
30714;BME280;17465;47.934;33.430;2023-08-01T09:01:21;58622.73;;;-140.43;35.94
30714;BME280;17465;47.934;33.430;2023-08-01T09:03:52;58603.66;;;-140.43;32.51
30714;BME280;17465;47.934;33.430;2023-08-01T09:06:31;58687.36;;;-140.43;33.36
30714;BME280;17465;47.934;33.430;2023-08-01T09:09:10;58670.40;;;-140.43;32.32
30714;BME280;17465;47.934;33.430;2023-08-01T09:11:51;58641.80;;;-140.43;32.56
30714;BME280;17465;47.934;33.430;2023-08-01T09:14:22;58694.77;;;-140.43;32.93
30714;BME280;17465;47.934;33.430;2023-08-01T09:16:52;58737.15;;;-140.43;33.50
30714;BME280;17465;47.934;33.430;2023-08-01T09:19:24;58737.15;;;-140.43;33.50
30714;BME280;17465;47.934;33.430;2023-08-01T09:21:55;58731.85;;;-140.43;32.93
30714;BME280;17465;47.934;33.430;2023-08-01T09:24:26;58699.01;;;-140.43;32.50
30714;BME280;17465;47.934;33.430;2023-08-01T09:27:02;58704.31;;;-140.43;33.19
30714;BME280;17465;47.934;33.430;2023-08-01T09:29:30;58751.98;;;-140.43;31.88
30714;BME280;17465;47.934;33.430;2023-08-01T09:32:10;58751.98;;;-140.43;31.88
30714;BME280;17465;47.934;33.430;2023-08-01T09:34:32;58674.64;;;-140.43;31.54
30714;BME280;17465;47.934;33.430;2023-08-01T09:37:03;58674.64;;;-140.43;31.54
30714;BME280;17465;47.934;33.430;2023-08-01T09:39:40;58683.12;;;-140.43;32.60
30714;BME280;17465;47.934;33.430;2023-08-01T09:42:11;58659.81;;;-140.43;31.84
30714;BME280;17465;47.934;33.430;2023-08-01T09:44:44;58713.84;;;-140.43;32.53
30714;BME280;17465;47.934;33.430;2023-08-01T09:47:14;58713.84;;;-140.43;32.53
30714;BME280;17465;47.934;33.430;2023-08-01T09:49:48;58684.18;;;-140.43;32.51
30714;BME280;17465;47.934;33.430;2023-08-01T09:52:28;58732.91;;;-140.43;31.89
30714;BME280;17465;47.934;33.430;2023-08-01T09:54:58;58732.91;;;-140.43;31.89
30714;BME280;17465;47.934;33.430;2023-08-01T09:57:30;58634.38;;;-140.43;31.51
30714;BME280;17465;47.934;33.430;2023-08-01T10:00:01;58678.88;;;-140.43;32.26
30714;BME280;17465;47.934;33.430;2023-08-01T10:02:32;58555.98;;;-140.43;33.30
30714;BME280;17465;47.934;33.430;2023-08-01T10:05:04;58555.98;;;-140.43;33.30
30714;BME280;17465;47.934;33.430;2023-08-01T10:07:36;58590.94;;;-140.43;33.21
30714;BME280;17465;47.934;33.430;2023-08-01T10:10:09;58611.07;;;-140.43;32.88
30714;BME280;17465;47.934;33.430;2023-08-01T10:12:46;58615.31;;;-140.43;32.70
30714;BME280;17465;47.934;33.430;2023-08-01T10:15:15;58615.31;;;-140.43;32.70
30714;BME280;17465;47.934;33.430;2023-08-01T10:17:46;58733.97;;;-140.43;31.16
30714;BME280;17465;47.934;33.430;2023-08-01T10:20:17;58761.52;;;-140.43;30.52
30714;BME280;17465;47.934;33.430;2023-08-01T10:22:50;58808.14;;;-140.43;29.87
30714;BME280;17465;47.934;33.430;2023-08-01T10:25:21;58808.14;;;-140.43;29.87
30714;BME280;17465;47.934;33.430;2023-08-01T10:28:00;58756.22;;;-140.43;31.03
30714;BME280;17465;47.934;33.430;2023-08-01T10:30:30;58756.22;;;-140.43;31.03
30714;BME280;17465;47.934;33.430;2023-08-01T10:33:04;58830.39;;;-140.43;29.81
30714;BME280;17465;47.934;33.430;2023-08-01T10:35:47;58830.39;;;-140.43;29.81
30714;BME280;17465;47.934;33.430;2023-08-01T10:38:22;58879.13;;;-140.43;30.52
30714;BME280;17465;47.934;33.430;2023-08-01T10:40:52;58932.10;;;-140.43;28.58
30714;BME280;17465;47.934;33.430;2023-08-01T10:43:23;58883.36;;;-140.43;29.59
30714;BME280;17465;47.934;33.430;2023-08-01T10:46:02;58880.19;;;-140.43;29.79
30714;BME280;17465;47.934;33.430;2023-08-01T10:48:32;58866.41;;;-140.43;30.00
30714;BME280;17465;47.934;33.430;2023-08-01T10:51:03;58835.68;;;-140.43;28.59
30714;BME280;17465;47.934;33.430;2023-08-01T10:53:40;58756.22;;;-140.43;29.83
30714;BME280;17465;47.934;33.430;2023-08-01T10:56:19;58722.32;;;-140.43;30.82
30714;BME280;17465;47.934;33.430;2023-08-01T10:58:50;58740.33;;;-140.43;29.36
30714;BME280;17465;47.934;33.430;2023-08-01T11:01:20;58837.80;;;-140.43;30.21
30714;BME280;17465;47.934;33.430;2023-08-01T11:03:51;58837.80;;;-140.43;30.21
30714;BME280;17465;47.934;33.430;2023-08-01T11:06:21;58796.48;;;-140.43;29.21
30714;BME280;17465;47.934;33.430;2023-08-01T11:08:53;58796.48;;;-140.43;29.21
30714;BME280;17465;47.934;33.430;2023-08-01T11:11:26;58837.80;;;-140.43;28.97
30714;BME280;17465;47.934;33.430;2023-08-01T11:13:56;58837.80;;;-140.43;28.97
30714;BME280;17465;47.934;33.430;2023-08-01T11:16:27;58860.05;;;-140.43;28.20
30714;BME280;17465;47.934;33.430;2023-08-01T11:18:57;58678.88;;;-140.43;31.35
30714;BME280;17465;47.934;33.430;2023-08-01T11:21:28;58678.88;;;-140.43;31.35
30714;BME280;17465;47.934;33.430;2023-08-01T11:23:58;58620.61;;;-140.43;32.49
30714;BME280;17465;47.934;33.430;2023-08-01T11:26:28;58620.61;;;-140.43;32.49
30714;BME280;17465;47.934;33.430;2023-08-01T11:29:03;58601.54;;;-140.43;30.84
30714;BME280;17465;47.934;33.430;2023-08-01T11:31:33;58601.54;;;-140.43;30.84
30714;BME280;17465;47.934;33.430;2023-08-01T11:34:05;58672.52;;;-140.43;29.60
30714;BME280;17465;47.934;33.430;2023-08-01T11:36:35;58672.52;;;-140.43;29.60
30714;BME280;17465;47.934;33.430;2023-08-01T11:39:06;58773.18;;;-140.43;28.79
30714;BME280;17465;47.934;33.430;2023-08-01T11:41:36;58878.07;;;-140.43;29.45
30714;BME280;17465;47.934;33.430;2023-08-01T11:44:07;58747.75;;;-140.43;29.66
30714;BME280;17465;47.934;33.430;2023-08-01T11:46:38;58747.75;;;-140.43;29.66
30714;BME280;17465;47.934;33.430;2023-08-01T11:49:09;58818.73;;;-140.43;29.63
30714;BME280;17465;47.934;33.430;2023-08-01T11:51:43;58854.76;;;-140.43;27.27
30714;BME280;17465;47.934;33.430;2023-08-01T11:54:15;58923.62;;;-140.43;27.82
30714;BME280;17465;47.934;33.430;2023-08-01T11:56:45;58923.62;;;-140.43;27.82
30714;BME280;17465;47.934;33.430;2023-08-01T11:59:17;58986.14;;;-140.43;27.41
30714;BME280;17465;47.934;33.430;2023-08-01T12:01:52;58986.14;;;-140.43;27.41
30714;BME280;17465;47.934;33.430;2023-08-01T12:04:32;59119.65;;;-140.43;26.25
30714;BME280;17465;47.934;33.430;2023-08-01T12:07:12;59130.25;;;-140.43;27.13
30714;BME280;17465;47.934;33.430;2023-08-01T12:09:37;59077.27;;;-140.43;26.65
30714;BME280;17465;47.934;33.430;2023-08-01T12:12:11;58856.88;;;-140.43;28.39
30714;BME280;17465;47.934;33.430;2023-08-01T12:14:42;58664.05;;;-140.43;28.45
30714;BME280;17465;47.934;33.430;2023-08-01T12:17:15;58629.08;;;-140.43;30.57
30714;BME280;17465;47.934;33.430;2023-08-01T12:19:50;58629.08;;;-140.43;30.57
30714;BME280;17465;47.934;33.430;2023-08-01T12:22:23;58424.61;;;-140.43;32.88
30714;BME280;17465;47.934;33.430;2023-08-01T12:24:53;58424.61;;;-140.43;32.88
30714;BME280;17465;47.934;33.430;2023-08-01T12:27:25;58410.84;;;-140.43;30.61
30714;BME280;17465;47.934;33.430;2023-08-01T12:30:03;58275.24;;;-140.43;34.57
30714;BME280;17465;47.934;33.430;2023-08-01T12:32:52;58316.55;;;-140.43;35.06
30714;BME280;17465;47.934;33.430;2023-08-01T12:35:13;58322.91;;;-140.43;35.38
30714;BME280;17465;47.934;33.430;2023-08-01T12:37:43;58266.77;;;-140.43;34.99
30714;BME280;17465;47.934;33.430;2023-08-01T12:40:13;58237.11;;;-140.43;36.21
30714;BME280;17465;47.934;33.430;2023-08-01T12:42:44;58237.11;;;-140.43;36.21
30714;BME280;17465;47.934;33.430;2023-08-01T12:45:14;58204.27;;;-140.43;38.41
30714;BME280;17465;47.934;33.430;2023-08-01T12:47:44;58159.77;;;-140.43;39.69
30714;BME280;17465;47.934;33.430;2023-08-01T12:50:15;58159.77;;;-140.43;39.69
30714;BME280;17465;47.934;33.430;2023-08-01T12:52:46;58117.40;;;-140.43;41.42